
Distance (Route):
Temperature : -50.7°C
Humidity : 66.4%
Pressure : 29.1hPa| Receiver | Frames | First received | Last received |
|---|---|---|---|
| AA1-15 | 326 | 2026-09-04 14:37:03 | 2026-09-04 15:11:58 |
| Receiver | Date | Latitude | Longitude | Direction | Speed | Altitude | Climb | Temperature | Humidity | Pressure | Voltage | Killtimer | Uptime | BKT | XDATA |
|---|---|---|---|---|---|---|---|---|---|---|---|---|---|---|---|
| AA1-15 | 2026-09-04 15:11:58 | -74.41006 | 49.08941 | 0° | 0km/h | 159087m | 0m/s | -50.7°C | 66.4% | 29.1hPa | 2.4V | 00:00:00 | 00:00:00 | 00:00:00 | |
| AA1-15 | 2026-09-04 15:11:22 | -74.41006 | 49.08941 | 0° | 0km/h | 159087m | 0m/s | -49.9°C | 66.9% | 26.4hPa | 2.4V | 00:00:00 | 00:00:00 | 00:00:00 | |
| AA1-15 | 2026-09-04 15:10:21 | -74.41006 | 49.08941 | 0° | 0km/h | 159087m | 0m/s | -48.2°C | 68.4% | 22.1hPa | 2.4V | 00:00:00 | 00:00:00 | 00:00:00 | |
| AA1-15 | 2026-09-04 15:09:35 | -74.41006 | 49.08941 | 0° | 0km/h | 159087m | 0m/s | -48.7°C | 68.5% | 19.1hPa | 2.4V | 00:00:00 | 00:00:00 | 00:00:00 | |
| AA1-15 | 2026-09-04 15:09:24 | -74.41006 | 49.08941 | 0° | 0km/h | 159087m | 0m/s | -48.6°C | 68.5% | 18.5hPa | 2.4V | 00:00:00 | 00:00:00 | 00:00:00 | |
| AA1-15 | 2026-09-04 15:09:08 | -74.41006 | 49.08941 | 0° | 0km/h | 159087m | 0m/s | -48.6°C | 67.8% | 17.5hPa | 2.4V | 00:00:00 | 00:00:00 | 00:00:00 | |
| AA1-15 | 2026-09-04 15:08:50 | -74.41006 | 49.08941 | 0° | 0km/h | 159087m | 0m/s | -49.3°C | 68% | 16.5hPa | 2.4V | 00:00:00 | 00:00:00 | 00:00:00 | |
| AA1-15 | 2026-09-04 15:08:35 | -74.41006 | 49.08941 | 0° | 0km/h | 159087m | 0m/s | -48.8°C | 69% | 15.8hPa | 2.4V | 00:00:00 | 00:00:00 | 00:00:00 | |
| AA1-15 | 2026-09-04 15:08:23 | -74.41006 | 49.08941 | 0° | 0km/h | 159087m | 0m/s | -47.9°C | 69.7% | 15.2hPa | 2.4V | 00:00:00 | 00:00:00 | 00:00:00 | |
| AA1-15 | 2026-09-04 15:08:12 | -74.41006 | 49.08941 | 0° | 0km/h | 159087m | 0m/s | -47°C | 70.1% | 14.5hPa | 2.4V | 00:00:00 | 00:00:00 | 00:00:00 | |
| AA1-15 | 2026-09-04 15:08:00 | -74.41006 | 49.08941 | 0° | 0km/h | 159087m | 0m/s | -46.4°C | 70.1% | 13.9hPa | 2.4V | 00:00:00 | 00:00:00 | 00:00:00 | |
| AA1-15 | 2026-09-04 15:07:46 | -74.41006 | 49.08941 | 0° | 0km/h | 159087m | 0m/s | -46°C | 70.7% | 13.1hPa | 2.4V | 00:00:00 | 00:00:00 | 00:00:00 | |
| AA1-15 | 2026-09-04 15:07:35 | -74.41006 | 49.08941 | 0° | 0km/h | 159087m | 0m/s | -45.4°C | 70.9% | 12.7hPa | 2.4V | 00:00:00 | 00:00:00 | 00:00:00 | |
| AA1-15 | 2026-09-04 15:07:23 | -74.41006 | 49.08941 | 0° | 0km/h | 159087m | 0m/s | -45.3°C | 71.8% | 11.9hPa | 2.4V | 00:00:00 | 00:00:00 | 00:00:00 | |
| AA1-15 | 2026-09-04 15:07:09 | -74.41006 | 49.08941 | 0° | 0km/h | 159087m | 0m/s | -44.2°C | 72.4% | 11.3hPa | 2.4V | 00:00:00 | 00:00:00 | 00:00:00 | |
| AA1-15 | 2026-09-04 15:06:57 | -74.41006 | 49.08941 | 0° | 0km/h | 159087m | 0m/s | -44°C | 73.2% | 10.8hPa | 2.4V | 00:00:00 | 00:00:00 | 00:00:00 | |
| AA1-15 | 2026-09-04 15:06:46 | -74.41006 | 49.08941 | 0° | 0km/h | 159087m | 0m/s | -42.9°C | 73.9% | 10.2hPa | 2.4V | 00:00:00 | 00:00:00 | 00:00:00 | |
| AA1-15 | 2026-09-04 15:06:32 | -74.41006 | 49.08941 | 0° | 0km/h | 159087m | 0m/s | -42.3°C | 76.7% | 10hPa | 2.4V | 00:00:00 | 00:00:00 | 00:00:00 | |
| AA1-15 | 2026-09-04 15:06:20 | -74.41006 | 49.08941 | 0° | 0km/h | 159087m | 0m/s | -42.6°C | 76.4% | 10.1hPa | 2.4V | 00:00:00 | 00:00:00 | 00:00:00 | |
| AA1-15 | 2026-09-04 15:06:10 | -74.41006 | 49.08941 | 0° | 0km/h | 159087m | 0m/s | -42.7°C | 76.7% | 10.2hPa | 2.4V | 00:00:00 | 00:00:00 | 00:00:00 | |
| AA1-15 | 2026-09-04 15:05:49 | -74.41006 | 49.08941 | 0° | 0km/h | 159087m | 0m/s | -43.6°C | 76.9% | 10.4hPa | 2.4V | 00:00:00 | 00:00:00 | 00:00:00 | |
| AA1-15 | 2026-09-04 15:05:38 | -74.41006 | 49.08941 | 0° | 0km/h | 159087m | 0m/s | -43.6°C | 77% | 10.5hPa | 2.4V | 00:00:00 | 00:00:00 | 00:00:00 | |
| AA1-15 | 2026-09-04 15:05:28 | -74.41006 | 49.08941 | 0° | 0km/h | 159087m | 0m/s | -43.6°C | 76.6% | 10.6hPa | 2.4V | 00:00:00 | 00:00:00 | 00:00:00 | |
| AA1-15 | 2026-09-04 15:05:13 | -74.41006 | 49.08941 | 0° | 0km/h | 159087m | 0m/s | -43.6°C | 76% | 10.8hPa | 2.4V | 00:00:00 | 00:00:00 | 00:00:00 | |
| AA1-15 | 2026-09-04 15:05:01 | -74.41006 | 49.08941 | 0° | 0km/h | 159087m | 0m/s | -43.4°C | 76% | 10.9hPa | 2.4V | 00:00:00 | 00:00:00 | 00:00:00 | |
| AA1-15 | 2026-09-04 15:04:48 | -74.41006 | 49.08941 | 0° | 0km/h | 159087m | 0m/s | -43.3°C | 76.5% | 11.1hPa | 2.4V | 00:00:00 | 00:00:00 | 00:00:00 | |
| AA1-15 | 2026-09-04 15:04:37 | -74.41006 | 49.08941 | 0° | 0km/h | 159087m | 0m/s | -43.4°C | 76.6% | 11.1hPa | 2.3V | 00:00:00 | 00:00:00 | 00:00:00 | |
| AA1-15 | 2026-09-04 15:04:26 | -74.41006 | 49.08941 | 0° | 0km/h | 159087m | 0m/s | -43.8°C | 76% | 11.3hPa | 2.3V | 00:00:00 | 00:00:00 | 00:00:00 | |
| AA1-15 | 2026-09-04 15:04:12 | -74.41006 | 49.08941 | 0° | 0km/h | 159087m | 0m/s | -43.8°C | 75.8% | 11.4hPa | 2.2V | 00:00:00 | 00:00:00 | 00:00:00 | |
| AA1-15 | 2026-09-04 15:04:00 | -74.41006 | 49.08941 | 0° | 0km/h | 159087m | 0m/s | -44.2°C | 75.9% | 11.5hPa | 2.2V | 00:00:00 | 00:00:00 | 00:00:00 | |
| AA1-15 | 2026-09-04 15:03:49 | -74.41006 | 49.08941 | 0° | 0km/h | 159087m | 0m/s | -44.7°C | 76.4% | 11.7hPa | 2.2V | 00:00:00 | 00:00:00 | 00:00:00 | |
| AA1-15 | 2026-09-04 15:03:37 | -74.41006 | 49.08941 | 0° | 0km/h | 159087m | 0m/s | -44.6°C | 76.3% | 11.8hPa | 2.2V | 00:00:00 | 00:00:00 | 00:00:00 | |
| AA1-15 | 2026-09-04 15:03:27 | 55.06379 | 19.73842 | 0° | 0km/h | 159087m | 0m/s | -44.8°C | 75.9% | 11.9hPa | 2.2V | 00:00:00 | 00:00:00 | 00:00:00 | |
| AA1-15 | 2026-09-04 15:03:17 | 55.06379 | 19.73842 | 0° | 0km/h | 159087m | 0m/s | -44.9°C | 75.3% | 12hPa | 2.2V | 00:00:00 | 00:00:00 | 00:00:00 | |
| AA1-15 | 2026-09-04 15:03:05 | 55.07645 | 19.73188 | 164° | 522km/h | 159087m | 106.7m/s | -45°C | 75.2% | 12.2hPa | 2.2V | 00:00:00 | 00:00:00 | 00:00:00 | |
| AA1-15 | 2026-09-04 15:02:53 | 55.08258 | 19.72931 | 267° | 13km/h | 2726m | 8.7m/s | -44.9°C | 75.5% | 12.3hPa | 2.1V | 00:00:00 | 00:00:00 | 00:00:00 | |
| AA1-15 | 2026-09-04 15:02:31 | 55.08281 | 19.73067 | 270° | 18km/h | 2510m | 9.3m/s | -45°C | 75.9% | 12.6hPa | 2.1V | 00:00:00 | 00:00:00 | 00:00:00 | |
| AA1-15 | 2026-09-04 15:02:20 | 55.08303 | 19.73139 | 265° | 13km/h | 2480m | 9.1m/s | -45°C | 75.5% | 12.7hPa | 2.1V | 00:00:00 | 00:00:00 | 00:00:00 | |
| AA1-15 | 2026-09-04 15:02:10 | 55.08295 | 19.73216 | 267° | 13km/h | 2451m | 7.9m/s | -45.3°C | 74.6% | 12.8hPa | 2.1V | 00:00:00 | 00:00:00 | 00:00:00 | |
| AA1-15 | 2026-09-04 15:01:59 | 55.08288 | 19.73287 | 269° | 16km/h | 2344m | 8.3m/s | -45.6°C | 74.3% | 12.9hPa | 2.1V | 00:00:00 | 00:00:00 | 00:00:00 | |
| AA1-15 | 2026-09-04 15:01:49 | 55.08239 | 19.73341 | 258° | 15km/h | 2205m | 5.3m/s | -45.7°C | 75.2% | 13hPa | 2.1V | 00:00:00 | 00:00:00 | 00:00:00 | |
| AA1-15 | 2026-09-04 15:01:39 | 55.08246 | 19.73421 | 276° | 13km/h | 2159m | 8.3m/s | -45.6°C | 75.9% | 13.1hPa | 2.1V | 00:00:00 | 00:00:00 | 00:00:00 | |
| AA1-15 | 2026-09-04 15:01:29 | 55.08236 | 19.73499 | 270° | 15km/h | 2081m | 8.5m/s | -45.7°C | 76.3% | 13.3hPa | 2.1V | 00:00:00 | 00:00:00 | 00:00:00 | |
| AA1-15 | 2026-09-04 15:01:17 | 55.08227 | 19.73571 | 267° | 15km/h | 1970m | 8.4m/s | -45.7°C | 76.2% | 13.4hPa | 2.1V | 00:00:00 | 00:00:00 | 00:00:00 | |
| AA1-15 | 2026-09-04 15:01:15 | 55.08226 | 19.73583 | 270° | 13km/h | 1947m | 9m/s | -45.7°C | 76.1% | 13.4hPa | 2.1V | 00:00:00 | 00:00:00 | 00:00:00 | |
| AA1-15 | 2026-09-04 15:01:14 | 55.08218 | 19.73588 | 270° | 16km/h | 1944m | 8.1m/s | -45.8°C | 76.1% | 13.4hPa | 2.1V | 00:00:00 | 00:00:00 | 00:00:00 | |
| AA1-15 | 2026-09-04 15:01:12 | 55.08217 | 19.73594 | 271° | 13km/h | 1927m | 8.2m/s | -45.8°C | 76% | 13.5hPa | 2.1V | 00:00:00 | 00:00:00 | 00:00:00 | |
| AA1-15 | 2026-09-04 15:01:09 | 55.08215 | 19.73603 | 273° | 13km/h | 1900m | 8.2m/s | -45.8°C | 75.9% | 13.5hPa | 2.1V | 00:00:00 | 00:00:00 | 00:00:00 | |
| AA1-15 | 2026-09-04 15:01:07 | 55.08213 | 19.73613 | 276° | 13km/h | 1885m | 8.1m/s | -45.8°C | 75.8% | 13.5hPa | 2.1V | 00:00:00 | 00:00:00 | 00:00:00 | |
| AA1-15 | 2026-09-04 15:01:05 | 55.08223 | 19.73622 | 270° | 16km/h | 1850m | 8.1m/s | -45.8°C | 75.8% | 13.6hPa | 2.1V | 00:00:00 | 00:00:00 | 00:00:00 | |
| AA1-15 | 2026-09-04 15:01:03 | 55.08231 | 19.73625 | 271° | 13km/h | 1811m | 8.4m/s | -45.9°C | 75.6% | 13.6hPa | 2.1V | 00:00:00 | 00:00:00 | 00:00:00 | |
| AA1-15 | 2026-09-04 15:01:02 | 55.08226 | 19.73626 | 271° | 15km/h | 1800m | 8m/s | -45.9°C | 75.6% | 13.6hPa | 2.1V | 00:00:00 | 00:00:00 | 00:00:00 | |
| AA1-15 | 2026-09-04 15:01:00 | 55.08217 | 19.73634 | 255° | 16km/h | 1782m | 8.5m/s | -45.9°C | 75.5% | 13.6hPa | 2.1V | 00:00:00 | 00:00:00 | 00:00:00 | |
| AA1-15 | 2026-09-04 15:00:57 | 55.08220 | 19.73654 | 271° | 15km/h | 1759m | 8.2m/s | -45.9°C | 75.9% | 13.6hPa | 2.1V | 00:00:00 | 00:00:00 | 00:00:00 | |
| AA1-15 | 2026-09-04 15:00:55 | 55.08217 | 19.73667 | 272° | 15km/h | 1736m | 12m/s | -45.9°C | 75.9% | 13.6hPa | 2.1V | 00:00:00 | 00:00:00 | 00:00:00 | |
| AA1-15 | 2026-09-04 15:00:54 | 55.08216 | 19.73673 | 270° | 13km/h | 1728m | 8.3m/s | -46°C | 75.9% | 13.7hPa | 2.1V | 00:00:00 | 00:00:00 | 00:00:00 | |
| AA1-15 | 2026-09-04 15:00:53 | 55.08214 | 19.73681 | 274° | 16km/h | 1718m | 9.4m/s | -45.9°C | 76.2% | 13.7hPa | 2.1V | 00:00:00 | 00:00:00 | 00:00:00 | |
| AA1-15 | 2026-09-04 15:00:47 | 55.08224 | 19.73883 | 241° | 100km/h | 1672m | 8.1m/s | -45.9°C | 76.5% | 13.8hPa | 2.1V | 00:00:00 | 00:00:00 | 00:00:00 | |
| AA1-15 | 2026-09-04 15:00:46 | 55.08231 | 19.73921 | 238° | 93km/h | 1664m | 8.2m/s | -45.9°C | 76.5% | 13.8hPa | 2.1V | 00:00:00 | 00:00:00 | 00:00:00 | |
| AA1-15 | 2026-09-04 15:00:44 | 55.08258 | 19.73986 | 225° | 93km/h | 1644m | 8m/s | -46°C | 76.5% | 13.8hPa | 2.1V | 00:00:00 | 00:00:00 | 00:00:00 | |
| AA1-15 | 2026-09-04 15:00:43 | 55.08274 | 19.74014 | 219° | 95km/h | 1633m | 8.2m/s | -46°C | 76.5% | 13.8hPa | 2.1V | 00:00:00 | 00:00:00 | 00:00:00 | |
| AA1-15 | 2026-09-04 15:00:41 | 55.08315 | 19.74059 | 208° | 91km/h | 1612m | 8.2m/s | -45.9°C | 76.4% | 13.8hPa | 2.1V | 00:00:00 | 00:00:00 | 00:00:00 | |
| AA1-15 | 2026-09-04 15:00:39 | 55.08359 | 19.74088 | 193° | 99km/h | 1593m | 8.1m/s | -45.9°C | 76.4% | 13.9hPa | 2.1V | 00:00:00 | 00:00:00 | 00:00:00 | |
| AA1-15 | 2026-09-04 15:00:38 | 55.08383 | 19.74095 | 189° | 95km/h | 1583m | 8m/s | -45.9°C | 76.3% | 13.9hPa | 2.1V | 00:00:00 | 00:00:00 | 00:00:00 | |
| AA1-15 | 2026-09-04 15:00:37 | 55.08407 | 19.74098 | 182° | 100km/h | 1574m | 8.1m/s | -45.9°C | 76.3% | 13.9hPa | 2.1V | 00:00:00 | 00:00:00 | 00:00:00 | |
| AA1-15 | 2026-09-04 15:00:36 | 55.08455 | 19.74091 | 169° | 97km/h | 1557m | 8m/s | -46°C | 76.2% | 13.9hPa | 2.1V | 00:00:00 | 00:00:00 | 00:00:00 | |
| AA1-15 | 2026-09-04 15:00:31 | 55.08544 | 19.74023 | 146° | 97km/h | 1529m | 8.2m/s | -46°C | 76.1% | 14hPa | 2.1V | 00:00:00 | 00:00:00 | 00:00:00 | |
| AA1-15 | 2026-09-04 15:00:29 | 55.08573 | 19.73964 | 132° | 93km/h | 1522m | 8.1m/s | -46°C | 76% | 14hPa | 2.1V | 00:00:00 | 00:00:00 | 00:00:00 | |
| AA1-15 | 2026-09-04 15:00:28 | 55.08588 | 19.73928 | 125° | 95km/h | 1516m | 8.1m/s | -46°C | 75.9% | 14hPa | 2.1V | 00:00:00 | 00:00:00 | 00:00:00 | |
| AA1-15 | 2026-09-04 15:00:23 | 55.08624 | 19.73729 | 97° | 99km/h | 1481m | 8.1m/s | -46.1°C | 75.6% | 14.1hPa | 2.1V | 00:00:00 | 00:00:00 | 00:00:00 | |
| AA1-15 | 2026-09-04 15:00:21 | 55.08625 | 19.73640 | 88° | 99km/h | 1459m | 9m/s | -46.1°C | 75.6% | 14.1hPa | 2.1V | 00:00:00 | 00:00:00 | 00:00:00 | |
| AA1-15 | 2026-09-04 15:00:19 | 55.08617 | 19.73560 | 74° | 95km/h | 1447m | 8.1m/s | -46.1°C | 75.6% | 14.2hPa | 2.1V | 00:00:00 | 00:00:00 | 00:00:00 | |
| AA1-15 | 2026-09-04 15:00:18 | 55.08608 | 19.73522 | 69° | 91km/h | 1439m | 8m/s | -46.1°C | 75.6% | 14.1hPa | 2.1V | 00:00:00 | 00:00:00 | 00:00:00 | |
| AA1-15 | 2026-09-04 15:00:17 | 55.08568 | 19.73418 | 50° | 97km/h | 1415m | 8m/s | -46.1°C | 75.5% | 14.2hPa | 2.1V | 00:00:00 | 00:00:00 | 00:00:00 | |
| AA1-15 | 2026-09-04 15:00:13 | 55.08533 | 19.73359 | 36° | 91km/h | 1399m | 8.2m/s | -46.2°C | 75.3% | 14.2hPa | 2.1V | 00:00:00 | 00:00:00 | 00:00:00 | |
| AA1-15 | 2026-09-04 15:00:10 | 55.08466 | 19.73299 | 19° | 95km/h | 1379m | 8.2m/s | -46.2°C | 75.5% | 14.3hPa | 2.2V | 00:00:00 | 00:00:00 | 00:00:00 | |
| AA1-15 | 2026-09-04 15:00:08 | 55.08415 | 19.73279 | 6° | 95km/h | 1368m | 8.5m/s | -46.3°C | 75.4% | 14.2hPa | 2.2V | 00:00:00 | 00:00:00 | 00:00:00 | |
| AA1-15 | 2026-09-04 15:00:06 | 55.08372 | 19.73276 | 0° | 95km/h | 1348m | 7.9m/s | -46.3°C | 75.4% | 14.3hPa | 2.2V | 00:00:00 | 00:00:00 | 00:00:00 | |
| AA1-15 | 2026-09-04 15:00:04 | 55.08324 | 19.73275 | 0° | 95km/h | 1323m | 8.1m/s | -46.3°C | 75.3% | 14.3hPa | 2.2V | 00:00:00 | 00:00:00 | 00:00:00 | |
| AA1-15 | 2026-09-04 15:00:01 | 55.08246 | 19.73279 | 0° | 100km/h | 1277m | 8m/s | -46.4°C | 75.2% | 14.4hPa | 2.2V | 00:00:00 | 00:00:00 | 00:00:00 | |
| AA1-15 | 2026-09-04 14:59:59 | 55.08183 | 19.73275 | 0° | 95km/h | 1256m | 8.2m/s | -46.5°C | 75.4% | 14.4hPa | 2.2V | 00:00:00 | 00:00:00 | 00:00:00 | |
| AA1-15 | 2026-09-04 14:59:59 | 55.08158 | 19.73274 | 360° | 93km/h | 1245m | 8.1m/s | -46.5°C | 75.4% | 14.4hPa | 2.2V | 00:00:00 | 00:00:00 | 00:00:00 | |
| AA1-15 | 2026-09-04 14:59:55 | 55.08071 | 19.73272 | 0° | 95km/h | 1214m | 8m/s | -46.5°C | 75.3% | 14.4hPa | 2.2V | 00:00:00 | 00:00:00 | 00:00:00 | |
| AA1-15 | 2026-09-04 14:59:53 | 55.08014 | 19.73270 | 360° | 95km/h | 1190m | 8m/s | -46.6°C | 75.1% | 14.5hPa | 2.2V | 00:00:00 | 00:00:00 | 00:00:00 | |
| AA1-15 | 2026-09-04 14:59:51 | 55.07961 | 19.73267 | 0° | 95km/h | 1166m | 8.1m/s | -46.6°C | 75% | 14.5hPa | 2.2V | 00:00:00 | 00:00:00 | 00:00:00 | |
| AA1-15 | 2026-09-04 14:59:48 | 55.07874 | 19.73257 | 6° | 97km/h | 1137m | 8.1m/s | -46.6°C | 75.2% | 14.6hPa | 2.2V | 00:00:00 | 00:00:00 | 00:00:00 | |
| AA1-15 | 2026-09-04 14:59:47 | 55.07846 | 19.73242 | 26° | 97km/h | 1127m | 8.1m/s | -46.6°C | 75.1% | 14.6hPa | 2.2V | 00:00:00 | 00:00:00 | 00:00:00 | |
| AA1-15 | 2026-09-04 14:59:46 | 55.07817 | 19.73211 | 43° | 100km/h | 1118m | 8.1m/s | -46.7°C | 75.1% | 14.6hPa | 2.2V | 00:00:00 | 00:00:00 | 00:00:00 | |
| AA1-15 | 2026-09-04 14:59:44 | 55.07776 | 19.73127 | 80° | 97km/h | 1101m | 8.1m/s | -46.7°C | 75% | 14.6hPa | 2.2V | 00:00:00 | 00:00:00 | 00:00:00 | |
| AA1-15 | 2026-09-04 14:59:43 | 55.07766 | 19.73079 | 99° | 97km/h | 1094m | 7.9m/s | -46.7°C | 75% | 14.6hPa | 2.2V | 00:00:00 | 00:00:00 | 00:00:00 | |
| AA1-15 | 2026-09-04 14:59:42 | 55.07739 | 19.73020 | 115° | 97km/h | 1096m | 8.1m/s | -46.7°C | 74.9% | 14.6hPa | 2.2V | 00:00:00 | 00:00:00 | 00:00:00 | |
| AA1-15 | 2026-09-04 14:59:40 | 55.07704 | 19.72919 | 153° | 97km/h | 1103m | 8m/s | -46.6°C | 74.8% | 14.7hPa | 2.2V | 00:00:00 | 00:00:00 | 00:00:00 | |
| AA1-15 | 2026-09-04 14:59:38 | 55.07659 | 19.72848 | 189° | 89km/h | 1114m | 8.6m/s | -46.7°C | 74.7% | 14.7hPa | 2.2V | 00:00:00 | 00:00:00 | 00:00:00 | |
| AA1-15 | 2026-09-04 14:59:36 | 55.07631 | 19.72826 | 225° | 95km/h | 1108m | 7.7m/s | -46.7°C | 74.6% | 14.7hPa | 2.2V | 00:00:00 | 00:00:00 | 00:00:00 | |
| AA1-15 | 2026-09-04 14:59:35 | 55.07547 | 19.72750 | 244° | 93km/h | 1134m | 8.2m/s | -46.7°C | 74.6% | 14.7hPa | 2.2V | 00:00:00 | 00:00:00 | 00:00:00 | |
| AA1-15 | 2026-09-04 14:59:33 | 55.07486 | 19.72689 | 289° | 86km/h | 1107m | 17.5m/s | -46.7°C | 74.6% | 14.8hPa | 2.2V | 00:00:00 | 00:00:00 | 00:00:00 | |
| AA1-15 | 2026-09-04 14:59:32 | 55.07449 | 19.72689 | 298° | 97km/h | 1109m | 23.5m/s | -46.8°C | 74.5% | 14.8hPa | 2.2V | 00:00:00 | 00:00:00 | 00:00:00 | |
| AA1-15 | 2026-09-04 14:59:26 | 55.07232 | 19.72882 | 267° | 99km/h | 982m | 8.8m/s | -46.9°C | 74.3% | 14.9hPa | 2.2V | 00:00:00 | 00:00:00 | 00:00:00 | |
| AA1-15 | 2026-09-04 14:59:23 | 55.07220 | 19.73002 | 270° | 93km/h | 967m | 7.7m/s | -47°C | 74.3% | 14.9hPa | 2.2V | 00:00:00 | 00:00:00 | 00:00:00 | |
| AA1-15 | 2026-09-04 14:59:22 | 55.07215 | 19.73040 | 269° | 95km/h | 963m | 8.2m/s | -47°C | 74.2% | 14.9hPa | 2.2V | 00:00:00 | 00:00:00 | 00:00:00 | |
| AA1-15 | 2026-09-04 14:59:20 | 55.07195 | 19.73116 | 269° | 99km/h | 951m | 8.5m/s | -47°C | 74.2% | 14.9hPa | 2.2V | 00:00:00 | 00:00:00 | 00:00:00 | |
| AA1-15 | 2026-09-04 14:59:19 | 55.07186 | 19.73154 | 269° | 95km/h | 946m | 8.1m/s | -47.1°C | 74% | 14.9hPa | 2.2V | 00:00:00 | 00:00:00 | 00:00:00 | |
| AA1-15 | 2026-09-04 14:59:17 | 55.07159 | 19.73227 | 259° | 100km/h | 939m | 6.5m/s | -47.2°C | 74.2% | 14.9hPa | 2.2V | 00:00:00 | 00:00:00 | 00:00:00 | |
| AA1-15 | 2026-09-04 14:59:15 | 55.07140 | 19.73303 | 240° | 97km/h | 949m | 7.9m/s | -47.2°C | 74.3% | 15hPa | 2.2V | 00:00:00 | 00:00:00 | 00:00:00 | |
| AA1-15 | 2026-09-04 14:59:14 | 55.07087 | 19.73328 | 233° | 99km/h | 983m | 8.3m/s | -47.3°C | 74.3% | 15hPa | 2.2V | 00:00:00 | 00:00:00 | 00:00:00 | |
| AA1-15 | 2026-09-04 14:59:11 | 55.06613 | 19.73340 | 208° | 89km/h | 1272m | 6m/s | -47.4°C | 74.3% | 15hPa | 2.2V | 00:00:00 | 00:00:00 | 00:00:00 | |
| AA1-15 | 2026-09-04 14:59:10 | 55.05739 | 19.73127 | 354° | 78km/h | 1818m | -16.1m/s | -47.4°C | 74.3% | 15hPa | 2.2V | 00:00:00 | 00:00:00 | 00:00:00 | |
| AA1-15 | 2026-09-04 14:59:09 | 54.92082 | 19.89614 | 47° | 4km/h | 159087m | 3.4m/s | -47.4°C | 74.1% | 15.1hPa | 2.4V | 00:00:00 | 00:00:00 | 00:00:00 | |
| AA1-15 | 2026-09-04 14:58:58 | 54.92074 | 19.89597 | 236° | 9km/h | 79543m | 5.3m/s | -47.8°C | 73.9% | 15.2hPa | 2.4V | 00:00:00 | 00:00:00 | 00:00:00 | |
| AA1-15 | 2026-09-04 14:58:47 | 54.92068 | 19.89667 | 274° | 13km/h | 2634m | 8m/s | -47.9°C | 73.2% | 15.3hPa | 2.4V | 00:00:00 | 00:00:00 | 00:00:00 | |
| AA1-15 | 2026-09-04 14:58:37 | 54.92070 | 19.89735 | 270° | 16km/h | 2548m | 8.2m/s | -48.2°C | 72.2% | 15.5hPa | 2.4V | 00:00:00 | 00:00:00 | 00:00:00 | |
| AA1-15 | 2026-09-04 14:58:26 | 54.92104 | 19.89833 | 270° | 13km/h | 2480m | 8.4m/s | -48.6°C | 71.9% | 15.7hPa | 2.4V | 00:00:00 | 00:00:00 | 00:00:00 | |
| AA1-15 | 2026-09-04 14:58:15 | 54.92072 | 19.89890 | 7° | 37km/h | 2436m | 9.3m/s | -49.1°C | 71.9% | 15.8hPa | 2.4V | 00:00:00 | 00:00:00 | 00:00:00 | |
| AA1-15 | 2026-09-04 14:57:42 | 54.92114 | 19.90092 | 278° | 15km/h | 2135m | 9.6m/s | -49.4°C | 72.5% | 16.2hPa | 2.4V | 00:00:00 | 00:00:00 | 00:00:00 | |
| AA1-15 | 2026-09-04 14:57:18 | 54.92085 | 19.90232 | 263° | 13km/h | 1922m | 8.8m/s | -49.3°C | 72.9% | 16.5hPa | 2.4V | 00:00:00 | 00:00:00 | 00:00:00 | |
| AA1-15 | 2026-09-04 14:57:17 | 54.92077 | 19.90233 | 271° | 16km/h | 1921m | 8.4m/s | -49.3°C | 72.9% | 16.5hPa | 2.4V | 00:00:00 | 00:00:00 | 00:00:00 | |
| AA1-15 | 2026-09-04 14:57:17 | 54.92063 | 19.90236 | 264° | 13km/h | 1921m | 9m/s | -49.4°C | 73% | 16.6hPa | 2.4V | 00:00:00 | 00:00:00 | 00:00:00 | |
| AA1-15 | 2026-09-04 14:57:15 | 54.92061 | 19.90241 | 266° | 15km/h | 1914m | 8.8m/s | -49.4°C | 72.9% | 16.6hPa | 2.4V | 00:00:00 | 00:00:00 | 00:00:00 | |
| AA1-15 | 2026-09-04 14:57:13 | 54.92036 | 19.90250 | 264° | 13km/h | 1917m | 8.7m/s | -49.2°C | 72.6% | 16.6hPa | 2.4V | 00:00:00 | 00:00:00 | 00:00:00 | |
| AA1-15 | 2026-09-04 14:57:12 | 54.92037 | 19.90257 | 268° | 13km/h | 1914m | 8.2m/s | -49.2°C | 72.3% | 16.6hPa | 2.4V | 00:00:00 | 00:00:00 | 00:00:00 | |
| AA1-15 | 2026-09-04 14:57:09 | 54.92050 | 19.90279 | 271° | 15km/h | 1883m | 8m/s | -49.3°C | 71.6% | 16.7hPa | 2.4V | 00:00:00 | 00:00:00 | 00:00:00 | |
| AA1-15 | 2026-09-04 14:57:06 | 54.92054 | 19.90306 | 250° | 16km/h | 1849m | 9.4m/s | -49.3°C | 71.3% | 16.7hPa | 2.4V | 00:00:00 | 00:00:00 | 00:00:00 | |
| AA1-15 | 2026-09-04 14:57:04 | 54.92058 | 19.90320 | 271° | 13km/h | 1830m | 8.6m/s | -49.3°C | 71.1% | 16.7hPa | 2.4V | 00:00:00 | 00:00:00 | 00:00:00 | |
| AA1-15 | 2026-09-04 14:56:53 | 54.92090 | 19.90384 | 268° | 27km/h | 1768m | 16.2m/s | -49.2°C | 70.8% | 16.9hPa | 2.4V | 00:00:00 | 00:00:00 | 00:00:00 | |
| AA1-15 | 2026-09-04 14:56:47 | 54.92130 | 19.90594 | 238° | 99km/h | 1719m | 7.7m/s | -49.2°C | 70.6% | 16.9hPa | 2.4V | 00:00:00 | 00:00:00 | 00:00:00 | |
| AA1-15 | 2026-09-04 14:56:46 | 54.92144 | 19.90629 | 238° | 95km/h | 1719m | 8m/s | -49.1°C | 70.9% | 17hPa | 2.4V | 00:00:00 | 00:00:00 | 00:00:00 | |
| AA1-15 | 2026-09-04 14:56:43 | 54.92199 | 19.90722 | 217° | 97km/h | 1716m | 8.6m/s | -49.1°C | 70.9% | 17hPa | 2.4V | 00:00:00 | 00:00:00 | 00:00:00 | |
| AA1-15 | 2026-09-04 14:56:39 | 54.92231 | 19.90764 | 192° | 93km/h | 1653m | 9.2m/s | -49°C | 70.9% | 17.1hPa | 2.4V | 00:00:00 | 00:00:00 | 00:00:00 | |
| AA1-15 | 2026-09-04 14:56:35 | 54.92336 | 19.90741 | 171° | 95km/h | 1635m | 8.1m/s | -48.9°C | 71.5% | 17.1hPa | 2.4V | 00:00:00 | 00:00:00 | 00:00:00 | |
| AA1-15 | 2026-09-04 14:56:32 | 54.92390 | 19.90695 | 153° | 95km/h | 1578m | 8.7m/s | -48.9°C | 71.7% | 17.1hPa | 2.4V | 00:00:00 | 00:00:00 | 00:00:00 | |
| AA1-15 | 2026-09-04 14:56:27 | 54.92502 | 19.90575 | 137° | 142km/h | 1444m | 19.6m/s | -48.8°C | 71.8% | 17.2hPa | 2.4V | 00:00:00 | 00:00:00 | 00:00:00 | |
| AA1-15 | 2026-09-04 14:56:25 | 54.92518 | 19.90498 | 109° | 93km/h | 1426m | 10.4m/s | -48.8°C | 72.2% | 17.3hPa | 2.4V | 00:00:00 | 00:00:00 | 00:00:00 | |
| AA1-15 | 2026-09-04 14:56:22 | 54.92542 | 19.90376 | 93° | 95km/h | 1374m | 9.2m/s | -48.7°C | 71.9% | 17.3hPa | 2.4V | 00:00:00 | 00:00:00 | 00:00:00 | |
| AA1-15 | 2026-09-04 14:56:20 | 54.92530 | 19.90286 | 78° | 99km/h | 1364m | 8.3m/s | -48.7°C | 72.1% | 17.3hPa | 2.4V | 00:00:00 | 00:00:00 | 00:00:00 | |
| AA1-15 | 2026-09-04 14:56:13 | 54.92463 | 19.90063 | 36° | 89km/h | 1332m | 8.5m/s | -48.7°C | 72.4% | 17.4hPa | 2.4V | 00:00:00 | 00:00:00 | 00:00:00 | |
| AA1-15 | 2026-09-04 14:56:08 | 54.92340 | 19.90006 | 2° | 108km/h | 1357m | 2.2m/s | -48.6°C | 73.1% | 17.5hPa | 2.4V | 00:00:00 | 00:00:00 | 00:00:00 | |
| AA1-15 | 2026-09-04 14:55:58 | 54.92067 | 19.89979 | 360° | 93km/h | 1291m | 8.4m/s | -48.5°C | 73.6% | 17.6hPa | 2.4V | 00:00:00 | 00:00:00 | 00:00:00 | |
| AA1-15 | 2026-09-04 14:55:56 | 54.92015 | 19.89981 | 360° | 97km/h | 1274m | 8.3m/s | -48.5°C | 73.9% | 17.6hPa | 2.4V | 00:00:00 | 00:00:00 | 00:00:00 | |
| AA1-15 | 2026-09-04 14:55:54 | 54.91969 | 19.89983 | 0° | 100km/h | 1263m | 8.1m/s | -48.4°C | 73.9% | 17.7hPa | 2.4V | 00:00:00 | 00:00:00 | 00:00:00 | |
| AA1-15 | 2026-09-04 14:55:51 | 54.91903 | 19.89989 | 360° | 95km/h | 1239m | 8.2m/s | -48.4°C | 73.3% | 17.7hPa | 2.4V | 00:00:00 | 00:00:00 | 00:00:00 | |
| AA1-15 | 2026-09-04 14:55:49 | 54.91855 | 19.89991 | 360° | 95km/h | 1216m | 9.1m/s | -48.4°C | 74.1% | 17.7hPa | 2.4V | 00:00:00 | 00:00:00 | 00:00:00 | |
| AA1-15 | 2026-09-04 14:55:47 | 54.91804 | 19.89989 | 24° | 97km/h | 1189m | 8.3m/s | -48.4°C | 74.2% | 17.8hPa | 2.4V | 00:00:00 | 00:00:00 | 00:00:00 | |
| AA1-15 | 2026-09-04 14:55:38 | 54.91857 | 19.89737 | 190° | 93km/h | 1116m | 8.2m/s | -48.2°C | 74% | 17.9hPa | 2.4V | 00:00:00 | 00:00:00 | 00:00:00 | |
| AA1-15 | 2026-09-04 14:55:30 | 54.91907 | 19.90004 | 269° | 95km/h | 1042m | 11.3m/s | -48.2°C | 74.2% | 18hPa | 2.4V | 00:00:00 | 00:00:00 | 00:00:00 | |
| AA1-15 | 2026-09-04 14:55:26 | 54.91880 | 19.90148 | 270° | 95km/h | 1014m | 8m/s | -48.2°C | 74.1% | 18hPa | 2.4V | 00:00:00 | 00:00:00 | 00:00:00 | |
| AA1-15 | 2026-09-04 14:55:24 | 54.91898 | 19.90223 | 270° | 95km/h | 981m | 8m/s | -48.3°C | 73.9% | 18hPa | 2.4V | 00:00:00 | 00:00:00 | 00:00:00 | |
| AA1-15 | 2026-09-04 14:55:23 | 54.91849 | 19.90273 | 269° | 95km/h | 1004m | 7.9m/s | -48.3°C | 73.9% | 18.1hPa | 2.4V | 00:00:00 | 00:00:00 | 00:00:00 | |
| AA1-15 | 2026-09-04 14:55:21 | 54.91422 | 19.90242 | 315° | 126km/h | 1057m | 7.6m/s | -48.3°C | 74% | 18.1hPa | 2.4V | 00:00:00 | 00:00:00 | 00:00:00 | |
| AA1-15 | 2026-09-04 14:55:20 | 54.91389 | 19.90275 | 347° | 334km/h | 1168m | 0.7m/s | -48.3°C | 74% | 18.1hPa | 2.4V | 00:00:00 | 00:00:00 | 00:00:00 | |
| AA1-15 | 2026-09-04 14:55:19 | 54.87649 | 20.02478 | 232° | 266km/h | 159087m | 8.1m/s | -48.3°C | 73.9% | 18.1hPa | 2.4V | 00:00:00 | 00:00:00 | 00:00:00 | |
| AA1-15 | 2026-09-04 14:55:08 | 54.88069 | 20.03396 | 232° | 266km/h | 79543m | 8.1m/s | -48.3°C | 74.7% | 18.3hPa | 2.4V | 00:00:00 | 00:00:00 | 00:00:00 | |
| AA1-15 | 2026-09-04 14:54:58 | 54.88378 | 20.04078 | 359° | 20km/h | 3025m | 9.4m/s | -48.6°C | 74.8% | 18.5hPa | 2.4V | 00:00:00 | 00:00:00 | 00:00:00 | |
| AA1-15 | 2026-09-04 14:54:47 | 54.88367 | 20.04086 | 0° | 16km/h | 2950m | 7.8m/s | -48.6°C | 74.9% | 18.7hPa | 2.4V | 00:00:00 | 00:00:00 | 00:00:00 | |
| AA1-15 | 2026-09-04 14:54:36 | 54.88331 | 20.04086 | 359° | 13km/h | 2869m | 7.7m/s | -48.6°C | 75% | 18.8hPa | 2.4V | 00:00:00 | 00:00:00 | 00:00:00 | |
| AA1-15 | 2026-09-04 14:54:25 | 54.88294 | 20.04085 | 1° | 16km/h | 2790m | 7.9m/s | -48.5°C | 75.2% | 19hPa | 2.4V | 00:00:00 | 00:00:00 | 00:00:00 | |
| AA1-15 | 2026-09-04 14:54:13 | 54.88270 | 20.04081 | 0° | 16km/h | 2704m | 8.2m/s | -48.5°C | 74.5% | 19.1hPa | 2.4V | 00:00:00 | 00:00:00 | 00:00:00 | |
| AA1-15 | 2026-09-04 14:54:03 | 54.88255 | 20.04074 | 1° | 15km/h | 2628m | 8.4m/s | -48.6°C | 73.5% | 19.3hPa | 2.4V | 00:00:00 | 00:00:00 | 00:00:00 | |
| AA1-15 | 2026-09-04 14:53:50 | 54.88217 | 20.04070 | 0° | 11km/h | 2525m | 8m/s | -48.4°C | 73.6% | 19.5hPa | 2.4V | 00:00:00 | 00:00:00 | 00:00:00 | |
| AA1-15 | 2026-09-04 14:53:39 | 54.88162 | 20.04087 | 360° | 9km/h | 2435m | 7.6m/s | -48.3°C | 74.3% | 19.7hPa | 2.4V | 00:00:00 | 00:00:00 | 00:00:00 | |
| AA1-15 | 2026-09-04 14:53:29 | 54.88137 | 20.03974 | 27° | 11km/h | 2316m | 11.4m/s | -48.4°C | 74.9% | 19.9hPa | 2.4V | 00:00:00 | 00:00:00 | 00:00:00 | |
| AA1-15 | 2026-09-04 14:53:15 | 54.88079 | 20.04047 | 325° | 11km/h | 2205m | 8.2m/s | -48.2°C | 74.9% | 20.1hPa | 2.4V | 00:00:00 | 00:00:00 | 00:00:00 | |
| AA1-15 | 2026-09-04 14:53:05 | 54.88028 | 20.04047 | 359° | 11km/h | 2081m | 8.1m/s | -48.4°C | 74.6% | 20.3hPa | 2.4V | 00:00:00 | 00:00:00 | 00:00:00 | |
| AA1-15 | 2026-09-04 14:52:53 | 54.88009 | 20.04061 | 2° | 13km/h | 1989m | 7.9m/s | -48.5°C | 74.2% | 20.5hPa | 2.4V | 00:00:00 | 00:00:00 | 00:00:00 | |
| AA1-15 | 2026-09-04 14:52:51 | 54.87976 | 20.04064 | 357° | 100km/h | 1973m | 8m/s | -48.5°C | 74.1% | 20.5hPa | 2.4V | 00:00:00 | 00:00:00 | 00:00:00 | |
| AA1-15 | 2026-09-04 14:52:50 | 54.87954 | 20.04067 | 358° | 95km/h | 1966m | 8.1m/s | -48.5°C | 73.9% | 20.6hPa | 2.4V | 00:00:00 | 00:00:00 | 00:00:00 | |
| AA1-15 | 2026-09-04 14:52:48 | 54.87907 | 20.04075 | 351° | 95km/h | 1950m | 8.1m/s | -48.6°C | 74% | 20.6hPa | 2.4V | 00:00:00 | 00:00:00 | 00:00:00 | |
| AA1-15 | 2026-09-04 14:52:42 | 54.87788 | 20.04131 | 343° | 95km/h | 1908m | 8.2m/s | -48.6°C | 74.4% | 20.7hPa | 2.4V | 00:00:00 | 00:00:00 | 00:00:00 | |
| AA1-15 | 2026-09-04 14:52:41 | 54.87775 | 20.04146 | 343° | 100km/h | 1904m | 8.1m/s | -48.6°C | 74.5% | 20.7hPa | 2.4V | 00:00:00 | 00:00:00 | 00:00:00 | |
| AA1-15 | 2026-09-04 14:52:38 | 54.87689 | 20.04217 | 337° | 100km/h | 1879m | 8.3m/s | -48.5°C | 74.5% | 20.8hPa | 2.4V | 00:00:00 | 00:00:00 | 00:00:00 | |
| AA1-15 | 2026-09-04 14:52:33 | 54.87563 | 20.04311 | 330° | 95km/h | 1853m | 8.2m/s | -48.4°C | 74.3% | 20.8hPa | 2.4V | 00:00:00 | 00:00:00 | 00:00:00 | |
| AA1-15 | 2026-09-04 14:52:30 | 54.87503 | 20.04373 | 326° | 97km/h | 1821m | 8.2m/s | -48.3°C | 74.2% | 20.9hPa | 2.4V | 00:00:00 | 00:00:00 | 00:00:00 | |
| AA1-15 | 2026-09-04 14:52:25 | 54.87417 | 20.04506 | 315° | 93km/h | 1789m | 8m/s | -48.2°C | 73.9% | 20.9hPa | 2.4V | 00:00:00 | 00:00:00 | 00:00:00 | |
| AA1-15 | 2026-09-04 14:52:24 | 54.87401 | 20.04535 | 316° | 93km/h | 1782m | 8m/s | -48.3°C | 73.8% | 20.9hPa | 2.4V | 00:00:00 | 00:00:00 | 00:00:00 | |
| AA1-15 | 2026-09-04 14:52:22 | 54.87371 | 20.04597 | 314° | 99km/h | 1770m | 8.2m/s | -48.3°C | 74.6% | 21hPa | 2.4V | 00:00:00 | 00:00:00 | 00:00:00 | |
| AA1-15 | 2026-09-04 14:52:21 | 54.87356 | 20.04629 | 311° | 97km/h | 1763m | 8.1m/s | -48.2°C | 74.5% | 21hPa | 2.4V | 00:00:00 | 00:00:00 | 00:00:00 | |
| AA1-15 | 2026-09-04 14:52:19 | 54.87326 | 20.04694 | 309° | 95km/h | 1748m | 8.1m/s | -48.2°C | 74.6% | 21.1hPa | 2.4V | 00:00:00 | 00:00:00 | 00:00:00 | |
| AA1-15 | 2026-09-04 14:52:18 | 54.87312 | 20.04727 | 306° | 95km/h | 1741m | 7.9m/s | -48.2°C | 74.9% | 21hPa | 2.4V | 00:00:00 | 00:00:00 | 00:00:00 | |
| AA1-15 | 2026-09-04 14:52:16 | 54.87286 | 20.04797 | 303° | 95km/h | 1729m | 8m/s | -48.2°C | 75.1% | 21.1hPa | 2.4V | 00:00:00 | 00:00:00 | 00:00:00 | |
| AA1-15 | 2026-09-04 14:52:13 | 54.87247 | 20.04908 | 300° | 99km/h | 1709m | 8m/s | -48.4°C | 75.1% | 21.2hPa | 2.4V | 00:00:00 | 00:00:00 | 00:00:00 | |
| AA1-15 | 2026-09-04 14:52:11 | 54.87228 | 20.04982 | 294° | 95km/h | 1696m | 8.1m/s | -48.3°C | 75.3% | 21.2hPa | 2.4V | 00:00:00 | 00:00:00 | 00:00:00 | |
| AA1-15 | 2026-09-04 14:52:09 | 54.87211 | 20.05061 | 292° | 95km/h | 1682m | 8.1m/s | -48.4°C | 75.2% | 21.2hPa | 2.4V | 00:00:00 | 00:00:00 | 00:00:00 | |
| AA1-15 | 2026-09-04 14:52:08 | 54.87204 | 20.05100 | 289° | 93km/h | 1677m | 8.1m/s | -48.4°C | 75.1% | 21.2hPa | 2.4V | 00:00:00 | 00:00:00 | 00:00:00 | |
| AA1-15 | 2026-09-04 14:52:03 | 54.87172 | 20.05299 | 281° | 95km/h | 1640m | 8.5m/s | -48.3°C | 74.7% | 21.3hPa | 2.4V | 00:00:00 | 00:00:00 | 00:00:00 | |
| AA1-15 | 2026-09-04 14:52:01 | 54.87181 | 20.05382 | 280° | 93km/h | 1634m | 8.1m/s | -48.2°C | 74.5% | 21.4hPa | 2.4V | 00:00:00 | 00:00:00 | 00:00:00 | |
| AA1-15 | 2026-09-04 14:51:59 | 54.87165 | 20.05462 | 278° | 97km/h | 1614m | 8.1m/s | -48.2°C | 74.5% | 21.4hPa | 2.4V | 00:00:00 | 00:00:00 | 00:00:00 | |
| AA1-15 | 2026-09-04 14:51:58 | 54.87159 | 20.05503 | 276° | 97km/h | 1604m | 8.2m/s | -48.2°C | 74.4% | 21.4hPa | 2.4V | 00:00:00 | 00:00:00 | 00:00:00 | |
| AA1-15 | 2026-09-04 14:51:55 | 54.87160 | 20.05630 | 270° | 95km/h | 1583m | 8.2m/s | -48.2°C | 74.2% | 21.4hPa | 2.4V | 00:00:00 | 00:00:00 | 00:00:00 | |
| AA1-15 | 2026-09-04 14:51:54 | 54.87165 | 20.05674 | 267° | 99km/h | 1577m | 8.1m/s | -48.2°C | 74.2% | 21.5hPa | 2.4V | 00:00:00 | 00:00:00 | 00:00:00 | |
| AA1-15 | 2026-09-04 14:51:52 | 54.87158 | 20.05761 | 266° | 97km/h | 1560m | 8.1m/s | -48.2°C | 73.9% | 21.5hPa | 2.4V | 00:00:00 | 00:00:00 | 00:00:00 | |
| AA1-15 | 2026-09-04 14:51:50 | 54.87168 | 20.05856 | 263° | 97km/h | 1551m | 8.1m/s | -48.3°C | 73.8% | 21.5hPa | 2.4V | 00:00:00 | 00:00:00 | 00:00:00 | |
| AA1-15 | 2026-09-04 14:51:46 | 54.87206 | 20.06004 | 256° | 97km/h | 1569m | 8.2m/s | -48.2°C | 73.8% | 21.6hPa | 2.4V | 00:00:00 | 00:00:00 | 00:00:00 | |
| AA1-15 | 2026-09-04 14:51:43 | 54.87241 | 20.06115 | 251° | 97km/h | 1569m | 8.2m/s | -48.2°C | 73.8% | 21.7hPa | 2.4V | 00:00:00 | 00:00:00 | 00:00:00 | |
| AA1-15 | 2026-09-04 14:51:40 | 54.87275 | 20.06228 | 248° | 93km/h | 1556m | 8.4m/s | -48.1°C | 73.7% | 21.7hPa | 2.4V | 00:00:00 | 00:00:00 | 00:00:00 | |
| AA1-15 | 2026-09-04 14:51:37 | 54.87310 | 20.06330 | 240° | 97km/h | 1531m | 8.1m/s | -48°C | 73.9% | 21.7hPa | 2.4V | 00:00:00 | 00:00:00 | 00:00:00 | |
| AA1-15 | 2026-09-04 14:51:28 | 54.87420 | 20.06681 | 227° | 97km/h | 1474m | 8.7m/s | -48°C | 74% | 21.8hPa | 2.4V | 00:00:00 | 00:00:00 | 00:00:00 | |
| AA1-15 | 2026-09-04 14:51:22 | 54.87525 | 20.06927 | 219° | 95km/h | 1445m | 8m/s | -47.9°C | 73.4% | 22hPa | 2.4V | 00:00:00 | 00:00:00 | 00:00:00 | |
| AA1-15 | 2026-09-04 14:51:19 | 54.87582 | 20.07007 | 214° | 93km/h | 1423m | 8.2m/s | -48.2°C | 73.2% | 22hPa | 2.4V | 00:00:00 | 00:00:00 | 00:00:00 | |
| AA1-15 | 2026-09-04 14:51:13 | 54.87698 | 20.07130 | 204° | 97km/h | 1372m | 7.6m/s | -48.5°C | 73.1% | 22.1hPa | 2.4V | 00:00:00 | 00:00:00 | 00:00:00 | |
| AA1-15 | 2026-09-04 14:51:12 | 54.87721 | 20.07151 | 202° | 99km/h | 1371m | 7.9m/s | -48.4°C | 73.4% | 22.2hPa | 2.4V | 00:00:00 | 00:00:00 | 00:00:00 | |
| AA1-15 | 2026-09-04 14:51:10 | 54.87765 | 20.07184 | 200° | 99km/h | 1361m | 8.2m/s | -48.5°C | 73.3% | 22.2hPa | 2.4V | 00:00:00 | 00:00:00 | 00:00:00 | |
| AA1-15 | 2026-09-04 14:51:09 | 54.87787 | 20.07200 | 198° | 93km/h | 1356m | 8.4m/s | -48.5°C | 73.3% | 22.2hPa | 2.4V | 00:00:00 | 00:00:00 | 00:00:00 | |
| AA1-15 | 2026-09-04 14:51:08 | 54.87808 | 20.07213 | 196° | 100km/h | 1351m | 8.2m/s | -48.5°C | 73.3% | 22.2hPa | 2.4V | 00:00:00 | 00:00:00 | 00:00:00 | |
| AA1-15 | 2026-09-04 14:51:04 | 54.87915 | 20.07270 | 190° | 97km/h | 1324m | 8m/s | -48.5°C | 73.4% | 22.3hPa | 2.4V | 00:00:00 | 00:00:00 | 00:00:00 | |
| AA1-15 | 2026-09-04 14:51:02 | 54.87964 | 20.07287 | 187° | 95km/h | 1308m | 8.1m/s | -48.5°C | 73.4% | 22.3hPa | 2.4V | 00:00:00 | 00:00:00 | 00:00:00 | |
| AA1-15 | 2026-09-04 14:51:01 | 54.87989 | 20.07296 | 186° | 95km/h | 1307m | 7.9m/s | -48.5°C | 73.5% | 22.3hPa | 2.4V | 00:00:00 | 00:00:00 | 00:00:00 | |
| AA1-15 | 2026-09-04 14:50:59 | 54.88037 | 20.07314 | 183° | 93km/h | 1310m | 8.2m/s | -48.4°C | 74% | 22.4hPa | 2.4V | 00:00:00 | 00:00:00 | 00:00:00 | |
| AA1-15 | 2026-09-04 14:50:58 | 54.88062 | 20.07319 | 180° | 95km/h | 1309m | 8.2m/s | -48.4°C | 74% | 22.4hPa | 2.4V | 00:00:00 | 00:00:00 | 00:00:00 | |
| AA1-15 | 2026-09-04 14:50:56 | 54.88113 | 20.07334 | 177° | 95km/h | 1307m | 8.2m/s | -48.4°C | 74.2% | 22.4hPa | 2.4V | 00:00:00 | 00:00:00 | 00:00:00 | |
| AA1-15 | 2026-09-04 14:50:53 | 54.88186 | 20.07349 | 174° | 100km/h | 1321m | 7.9m/s | -48.4°C | 74.6% | 22.4hPa | 2.4V | 00:00:00 | 00:00:00 | 00:00:00 | |
| AA1-15 | 2026-09-04 14:50:51 | 54.88234 | 20.07341 | 171° | 99km/h | 1319m | 6.9m/s | -48.5°C | 74.7% | 22.5hPa | 2.4V | 00:00:00 | 00:00:00 | 00:00:00 | |
| AA1-15 | 2026-09-04 14:50:49 | 54.88332 | 20.07321 | 166° | 95km/h | 1384m | 7.8m/s | -48.5°C | 74.6% | 22.5hPa | 2.4V | 00:00:00 | 00:00:00 | 00:00:00 | |
| AA1-15 | 2026-09-04 14:50:43 | 84.08222 | -123.76004 | 0° | 0km/h | 159087m | 0m/s | -48.6°C | 74.2% | 22.6hPa | 2.4V | 00:00:00 | 00:00:00 | 00:00:00 | |
| AA1-15 | 2026-09-04 14:50:32 | 84.08222 | -123.76004 | 0° | 0km/h | 159087m | 0m/s | -48.7°C | 73.5% | 22.8hPa | 2.4V | 00:00:00 | 00:00:00 | 00:00:00 | |
| AA1-15 | 2026-09-04 14:50:22 | 84.08222 | -123.76004 | 0° | 0km/h | 159087m | 0m/s | -48.7°C | 73% | 23hPa | 2.4V | 00:00:00 | 00:00:00 | 00:00:00 | |
| AA1-15 | 2026-09-04 14:50:11 | 84.08222 | -123.76004 | 0° | 0km/h | 159087m | 0m/s | -48.8°C | 73% | 23.2hPa | 2.4V | 00:00:00 | 00:00:00 | 00:00:00 | |
| AA1-15 | 2026-09-04 14:49:59 | 84.08222 | -123.76004 | 0° | 0km/h | 159087m | 0m/s | -49.3°C | 72.1% | 23.4hPa | 2.4V | 00:00:00 | 00:00:00 | 00:00:00 | |
| AA1-15 | 2026-09-04 14:49:48 | 84.08222 | -123.76004 | 0° | 0km/h | 159087m | 0m/s | -49.7°C | 72.6% | 23.5hPa | 2.4V | 00:00:00 | 00:00:00 | 00:00:00 | |
| AA1-15 | 2026-09-04 14:49:38 | 84.08222 | -123.76004 | 0° | 0km/h | 159087m | 0m/s | -49.8°C | 71.6% | 23.7hPa | 2.4V | 00:00:00 | 00:00:00 | 00:00:00 | |
| AA1-15 | 2026-09-04 14:49:28 | 84.08222 | -123.76004 | 0° | 0km/h | 159087m | 0m/s | -50.1°C | 71.1% | 23.9hPa | 2.4V | 00:00:00 | 00:00:00 | 00:00:00 | |
| AA1-15 | 2026-09-04 14:49:17 | 84.08222 | -123.76004 | 0° | 0km/h | 159087m | 0m/s | -49.9°C | 70.2% | 24.1hPa | 2.4V | 00:00:00 | 00:00:00 | 00:00:00 | |
| AA1-15 | 2026-09-04 14:49:06 | 84.08222 | -123.76004 | 0° | 0km/h | 159087m | 0m/s | -50°C | 69.3% | 24.3hPa | 2.4V | 00:00:00 | 00:00:00 | 00:00:00 | |
| AA1-15 | 2026-09-04 14:48:30 | 84.08222 | -123.76004 | 0° | 0km/h | 159087m | 0m/s | -49.9°C | 71.3% | 25hPa | 2.4V | 00:00:00 | 00:00:00 | 00:00:00 | |
| AA1-15 | 2026-09-04 14:48:13 | 84.08222 | -123.76004 | 0° | 0km/h | 159087m | 0m/s | -49.7°C | 71.2% | 25.3hPa | 2.4V | 00:00:00 | 00:00:00 | 00:00:00 | |
| AA1-15 | 2026-09-04 14:48:00 | 84.08222 | -123.76004 | 0° | 0km/h | 159087m | 0m/s | -50°C | 71.8% | 25.6hPa | 2.4V | 00:00:00 | 00:00:00 | 00:00:00 | |
| AA1-15 | 2026-09-04 14:47:46 | 84.08222 | -123.76004 | 0° | 0km/h | 159087m | 0m/s | -50.2°C | 72.7% | 25.8hPa | 2.4V | 00:00:00 | 00:00:00 | 00:00:00 | |
| AA1-15 | 2026-09-04 14:47:33 | 84.08222 | -123.76004 | 0° | 0km/h | 159087m | 0m/s | -50.2°C | 73.2% | 26.1hPa | 2.4V | 00:00:00 | 00:00:00 | 00:00:00 | |
| AA1-15 | 2026-09-04 14:47:19 | 84.08222 | -123.76004 | 0° | 0km/h | 159087m | 0m/s | -50.3°C | 72.8% | 26.4hPa | 2.4V | 00:00:00 | 00:00:00 | 00:00:00 | |
| AA1-15 | 2026-09-04 14:47:06 | 84.08222 | -123.76004 | 0° | 0km/h | 159087m | 0m/s | -50.7°C | 72.2% | 26.6hPa | 2.4V | 00:00:00 | 00:00:00 | 00:00:00 | |
| AA1-15 | 2026-09-04 14:46:56 | 84.08222 | -123.76004 | 0° | 0km/h | 159087m | 0m/s | -50.7°C | 71.8% | 26.8hPa | 2.4V | 00:00:00 | 00:00:00 | 00:00:00 | |
| AA1-15 | 2026-09-04 14:46:46 | 84.08222 | -123.76004 | 0° | 0km/h | 159087m | 0m/s | -50.7°C | 72.2% | 27hPa | 2.4V | 00:00:00 | 00:00:00 | 00:00:00 | |
| AA1-15 | 2026-09-04 14:46:35 | 84.08222 | -123.76004 | 0° | 0km/h | 159087m | 0m/s | -50.7°C | 72.2% | 27.2hPa | 2.2V | 00:00:00 | 00:00:00 | 00:00:00 | |
| AA1-15 | 2026-09-04 14:46:24 | 84.08222 | -123.76004 | 0° | 0km/h | 159087m | 0m/s | -50.7°C | 72.8% | 27.4hPa | 2.2V | 00:00:00 | 00:00:00 | 00:00:00 | |
| AA1-15 | 2026-09-04 14:46:08 | 84.08222 | -123.76004 | 0° | 0km/h | 159087m | 0m/s | -50.7°C | 71.4% | 27.8hPa | 2.2V | 00:00:00 | 00:00:00 | 00:00:00 | |
| AA1-15 | 2026-09-04 14:45:54 | 84.08222 | -123.76004 | 0° | 0km/h | 159087m | 0m/s | -50.9°C | 71.6% | 28.1hPa | 2.2V | 00:00:00 | 00:00:00 | 00:00:00 | |
| AA1-15 | 2026-09-04 14:45:39 | 84.08222 | -123.76004 | 0° | 0km/h | 159087m | 0m/s | -51.1°C | 71.7% | 28.4hPa | 2.2V | 00:00:00 | 00:00:00 | 00:00:00 | |
| AA1-15 | 2026-09-04 14:45:25 | 84.08222 | -123.76004 | 0° | 0km/h | 159087m | 0m/s | -51.5°C | 71.3% | 28.6hPa | 2.2V | 00:00:00 | 00:00:00 | 00:00:00 | |
| AA1-15 | 2026-09-04 14:45:14 | 84.08222 | -123.76004 | 0° | 0km/h | 159087m | 0m/s | -51.6°C | 71.8% | 28.9hPa | 2.2V | 00:00:00 | 00:00:00 | 00:00:00 | |
| AA1-15 | 2026-09-04 14:45:04 | 55.08102 | 19.72892 | 189° | 55km/h | 159087m | 7.5m/s | -51.4°C | 70.9% | 29.1hPa | 2.2V | 00:00:00 | 00:00:00 | 00:00:00 | |
| AA1-15 | 2026-09-04 14:44:54 | 55.08180 | 19.72925 | 267° | 16km/h | 2734m | 8.7m/s | -51.4°C | 70.2% | 29.3hPa | 2.2V | 00:00:00 | 00:00:00 | 00:00:00 | |
| AA1-15 | 2026-09-04 14:44:42 | 55.08212 | 19.73015 | 267° | 15km/h | 2616m | 8.2m/s | -51.2°C | 69.7% | 29.6hPa | 2.2V | 00:00:00 | 00:00:00 | 00:00:00 | |
| AA1-15 | 2026-09-04 14:44:31 | 55.08190 | 19.73088 | 269° | 15km/h | 2576m | 8.1m/s | -51.2°C | 69.2% | 29.8hPa | 2.2V | 00:00:00 | 00:00:00 | 00:00:00 | |
| AA1-15 | 2026-09-04 14:44:21 | 55.08223 | 19.73150 | 270° | 13km/h | 2476m | 8.1m/s | -51.2°C | 71.5% | 30.1hPa | 2.2V | 00:00:00 | 00:00:00 | 00:00:00 | |
| AA1-15 | 2026-09-04 14:44:09 | 55.08231 | 19.73229 | 271° | 16km/h | 2385m | 8.4m/s | -51.2°C | 72.4% | 30.3hPa | 2.2V | 00:00:00 | 00:00:00 | 00:00:00 | |
| AA1-15 | 2026-09-04 14:43:58 | 55.08218 | 19.73291 | 270° | 13km/h | 2341m | 8.1m/s | -51.4°C | 72.5% | 30.6hPa | 2.2V | 00:00:00 | 00:00:00 | 00:00:00 | |
| AA1-15 | 2026-09-04 14:43:47 | 55.08254 | 19.73348 | 269° | 16km/h | 159087m | 8.2m/s | -51.3°C | 73.2% | 30.9hPa | 2.2V | 00:00:00 | 00:00:00 | 00:00:00 | |
| AA1-15 | 2026-09-04 14:43:37 | 55.08263 | 19.73418 | 269° | 16km/h | 2201m | 8.2m/s | -51.3°C | 72.7% | 31.1hPa | 2.2V | 00:00:00 | 00:00:00 | 00:00:00 | |
| AA1-15 | 2026-09-04 14:43:26 | 55.08262 | 19.73493 | 272° | 13km/h | 2109m | 8m/s | -51.4°C | 72.7% | 31.4hPa | 2.2V | 00:00:00 | 00:00:00 | 00:00:00 | |
| AA1-15 | 2026-09-04 14:43:13 | 55.08288 | 19.73579 | 270° | 13km/h | 1992m | 7.9m/s | -51.5°C | 71.8% | 31.7hPa | 2.2V | 00:00:00 | 00:00:00 | 00:00:00 | |
| AA1-15 | 2026-09-04 14:43:10 | 55.08286 | 19.73611 | 269° | 16km/h | 2000m | 8.1m/s | -51.4°C | 72% | 31.8hPa | 2.2V | 00:00:00 | 00:00:00 | 00:00:00 | |
| AA1-15 | 2026-09-04 14:42:58 | 55.08289 | 19.73708 | 269° | 13km/h | 1950m | 8.1m/s | -51.2°C | 72.2% | 32.1hPa | 2.2V | 00:00:00 | 00:00:00 | 00:00:00 | |
| AA1-15 | 2026-09-04 14:42:51 | 51.99258 | 42.89929 | 0° | 0km/h | 159087m | 0m/s | -51.4°C | 71.6% | 32.2hPa | 2.2V | 00:00:00 | 00:00:00 | 00:00:00 | |
| AA1-15 | 2026-09-04 14:42:33 | 54.97556 | 19.42203 | 0° | 0km/h | 159087m | 0m/s | -51.4°C | 71.1% | 32.8hPa | 2.2V | 00:00:00 | 00:00:00 | 00:00:00 | |
| AA1-15 | 2026-09-04 14:42:14 | 55.03008 | 19.52615 | 0° | 0km/h | 159087m | 0m/s | -51.3°C | 72.4% | 33.2hPa | 2.2V | 00:00:00 | 00:00:00 | 00:00:00 | |
| AA1-15 | 2026-09-04 14:42:02 | -62.49420 | -87.04390 | 0° | 0km/h | 159087m | 0m/s | -51.3°C | 71.9% | 33.5hPa | 2.2V | 00:00:00 | 00:00:00 | 00:00:00 | |
| AA1-15 | 2026-09-04 14:41:50 | 54.56053 | 19.36100 | 0° | 0km/h | 159087m | 0m/s | -51.4°C | 70.7% | 33.8hPa | 2.2V | 00:00:00 | 00:00:00 | 00:00:00 | |
| AA1-15 | 2026-09-04 14:41:39 | 52.77023 | 18.88239 | 0° | 0km/h | 159087m | 0m/s | -51.7°C | 71.3% | 34hPa | 2.2V | 00:00:00 | 00:00:00 | 00:00:00 | |
| AA1-15 | 2026-09-04 14:41:29 | 55.21372 | 19.60654 | 325° | 467km/h | 159087m | 242.1m/s | -51.5°C | 72.8% | 34.3hPa | 2.2V | 00:00:00 | 00:00:00 | 00:00:00 | |
| AA1-15 | 2026-09-04 14:41:18 | 54.79967 | 19.95242 | 0° | 0km/h | 159087m | 0m/s | -51.4°C | 73.4% | 34.6hPa | 2.2V | 00:00:00 | 00:00:00 | 00:00:00 | |
| AA1-15 | 2026-09-04 14:41:07 | 54.79973 | 19.95269 | 249° | 22km/h | 159087m | 8.2m/s | -51.2°C | 73% | 34.9hPa | 2.2V | 00:00:00 | 00:00:00 | 00:00:00 | |
| AA1-15 | 2026-09-04 14:40:56 | 54.79993 | 19.95363 | 270° | 13km/h | 2809m | 8m/s | -51.2°C | 72.3% | 35.2hPa | 2.2V | 00:00:00 | 00:00:00 | 00:00:00 | |
| AA1-15 | 2026-09-04 14:40:45 | 54.80004 | 19.95444 | 268° | 13km/h | 2730m | 8m/s | -51°C | 72% | 35.4hPa | 2.2V | 00:00:00 | 00:00:00 | 00:00:00 | |
| AA1-15 | 2026-09-04 14:40:35 | 54.80030 | 19.95512 | 268° | 16km/h | 2683m | 8.1m/s | -50.9°C | 72% | 35.6hPa | 2.2V | 00:00:00 | 00:00:00 | 00:00:00 | |
| AA1-15 | 2026-09-04 14:40:24 | 54.80080 | 19.95670 | 267° | 13km/h | 2643m | 8m/s | -50.8°C | 73.2% | 36hPa | 2.2V | 00:00:00 | 00:00:00 | 00:00:00 | |
| AA1-15 | 2026-09-04 14:40:13 | 54.80084 | 19.95740 | 268° | 15km/h | 2536m | 8.1m/s | -50.6°C | 74% | 36.3hPa | 2.4V | 00:00:00 | 00:00:00 | 00:00:00 | |
| AA1-15 | 2026-09-04 14:40:03 | 54.80094 | 19.95798 | 267° | 13km/h | 2460m | 8.4m/s | -50.3°C | 74% | 36.5hPa | 2.4V | 00:00:00 | 00:00:00 | 00:00:00 | |
| AA1-15 | 2026-09-04 14:39:52 | 54.79939 | 19.95776 | 274° | 13km/h | 2410m | 8m/s | -50.3°C | 74% | 36.8hPa | 2.4V | 00:00:00 | 00:00:00 | 00:00:00 | |
| AA1-15 | 2026-09-04 14:39:42 | 54.79941 | 19.95834 | 272° | 13km/h | 2318m | 8.3m/s | -50.5°C | 73.3% | 37hPa | 2.4V | 00:00:00 | 00:00:00 | 00:00:00 | |
| AA1-15 | 2026-09-04 14:39:31 | 54.79946 | 19.95906 | 270° | 13km/h | 2236m | 8.4m/s | -50.6°C | 73.2% | 37.3hPa | 2.4V | 00:00:00 | 00:00:00 | 00:00:00 | |
| AA1-15 | 2026-09-04 14:39:20 | 54.79948 | 19.95971 | 268° | 15km/h | 2127m | 8m/s | -50.5°C | 73% | 37.6hPa | 2.4V | 00:00:00 | 00:00:00 | 00:00:00 | |
| AA1-15 | 2026-09-04 14:39:09 | 54.79950 | 19.96020 | 269° | 13km/h | 1992m | 8.2m/s | -50.4°C | 71.5% | 37.9hPa | 2.4V | 00:00:00 | 00:00:00 | 00:00:00 | |
| AA1-15 | 2026-09-04 14:39:07 | 54.79953 | 19.96027 | 271° | 13km/h | 1961m | 8.2m/s | -50.4°C | 71.1% | 37.9hPa | 2.4V | 00:00:00 | 00:00:00 | 00:00:00 | |
| AA1-15 | 2026-09-04 14:39:06 | 54.79957 | 19.96031 | 271° | 13km/h | 1950m | 8m/s | -50.4°C | 70.8% | 37.9hPa | 2.4V | 00:00:00 | 00:00:00 | 00:00:00 | |
| AA1-15 | 2026-09-04 14:39:04 | 54.79953 | 19.96041 | 270° | 13km/h | 1919m | 8.2m/s | -50.5°C | 70.5% | 38hPa | 2.4V | 00:00:00 | 00:00:00 | 00:00:00 | |
| AA1-15 | 2026-09-04 14:39:02 | 54.79956 | 19.96051 | 270° | 15km/h | 1896m | 8m/s | -50.4°C | 71.3% | 38hPa | 2.4V | 00:00:00 | 00:00:00 | 00:00:00 | |
| AA1-15 | 2026-09-04 14:39:01 | 54.79962 | 19.96053 | 269° | 13km/h | 1880m | 8.3m/s | -50.3°C | 71.2% | 38.1hPa | 2.4V | 00:00:00 | 00:00:00 | 00:00:00 | |
| AA1-15 | 2026-09-04 14:39:00 | 54.79966 | 19.96059 | 271° | 16km/h | 1868m | 7.9m/s | -50.3°C | 70.9% | 38hPa | 2.4V | 00:00:00 | 00:00:00 | 00:00:00 | |
| AA1-15 | 2026-09-04 14:38:59 | 54.79968 | 19.96066 | 270° | 15km/h | 1858m | 8m/s | -50.3°C | 70.8% | 38.1hPa | 2.4V | 00:00:00 | 00:00:00 | 00:00:00 | |
| AA1-15 | 2026-09-04 14:38:57 | 54.79960 | 19.96081 | 269° | 16km/h | 1824m | 8.2m/s | -50.4°C | 70.2% | 38.1hPa | 2.4V | 00:00:00 | 00:00:00 | 00:00:00 | |
| AA1-15 | 2026-09-04 14:38:56 | 54.79964 | 19.96085 | 268° | 15km/h | 1809m | 8.6m/s | -50.4°C | 69.9% | 38.1hPa | 2.4V | 00:00:00 | 00:00:00 | 00:00:00 | |
| AA1-15 | 2026-09-04 14:38:55 | 54.79970 | 19.96090 | 267° | 13km/h | 1794m | 8.8m/s | -50.4°C | 69.6% | 38.2hPa | 2.4V | 00:00:00 | 00:00:00 | 00:00:00 | |
| AA1-15 | 2026-09-04 14:38:53 | 54.79974 | 19.96109 | 270° | 15km/h | 1773m | 9.2m/s | -50.4°C | 69.5% | 38.3hPa | 2.4V | 00:00:00 | 00:00:00 | 00:00:00 | |
| AA1-15 | 2026-09-04 14:38:52 | 54.79974 | 19.96141 | 268° | 95km/h | 1756m | 8.6m/s | -50.4°C | 69.1% | 38.3hPa | 2.4V | 00:00:00 | 00:00:00 | 00:00:00 | |
| AA1-15 | 2026-09-04 14:38:50 | 54.79980 | 19.96180 | 261° | 99km/h | 1747m | 8m/s | -50.4°C | 69.2% | 38.3hPa | 2.4V | 00:00:00 | 00:00:00 | 00:00:00 | |
| AA1-15 | 2026-09-04 14:38:49 | 54.79987 | 19.96219 | 253° | 99km/h | 1739m | 8.2m/s | -50.4°C | 69.2% | 38.3hPa | 2.4V | 00:00:00 | 00:00:00 | 00:00:00 | |
| AA1-15 | 2026-09-04 14:38:47 | 54.80003 | 19.96295 | 241° | 100km/h | 1716m | 9.7m/s | -50.4°C | 68.8% | 38.4hPa | 2.4V | 00:00:00 | 00:00:00 | 00:00:00 | |
| AA1-15 | 2026-09-04 14:38:44 | 54.80047 | 19.96395 | 225° | 93km/h | 1692m | 8.1m/s | -50.4°C | 69.4% | 38.5hPa | 2.4V | 00:00:00 | 00:00:00 | 00:00:00 | |
| AA1-15 | 2026-09-04 14:38:43 | 54.80067 | 19.96422 | 219° | 95km/h | 1685m | 8m/s | -50.4°C | 69.6% | 38.5hPa | 2.4V | 00:00:00 | 00:00:00 | 00:00:00 | |
| AA1-15 | 2026-09-04 14:38:41 | 54.80106 | 19.96467 | 209° | 93km/h | 1665m | 7.9m/s | -50.4°C | 69.7% | 38.6hPa | 2.4V | 00:00:00 | 00:00:00 | 00:00:00 | |
| AA1-15 | 2026-09-04 14:38:40 | 54.80127 | 19.96483 | 199° | 97km/h | 1656m | 8.3m/s | -50.5°C | 69.6% | 38.6hPa | 2.4V | 00:00:00 | 00:00:00 | 00:00:00 | |
| AA1-15 | 2026-09-04 14:38:39 | 54.80151 | 19.96494 | 193° | 99km/h | 1647m | 8.3m/s | -50.4°C | 69.6% | 38.6hPa | 2.4V | 00:00:00 | 00:00:00 | 00:00:00 | |
| AA1-15 | 2026-09-04 14:38:37 | 54.80194 | 19.96498 | 181° | 100km/h | 1623m | 8.1m/s | -50.6°C | 69.4% | 38.7hPa | 2.4V | 00:00:00 | 00:00:00 | 00:00:00 | |
| AA1-15 | 2026-09-04 14:38:36 | 54.80214 | 19.96493 | 176° | 95km/h | 1607m | 8m/s | -50.7°C | 70% | 38.7hPa | 2.4V | 00:00:00 | 00:00:00 | 00:00:00 | |
| AA1-15 | 2026-09-04 14:38:35 | 54.80236 | 19.96487 | 169° | 97km/h | 1593m | 8.4m/s | -50.8°C | 71.2% | 38.7hPa | 2.4V | 00:00:00 | 00:00:00 | 00:00:00 | |
| AA1-15 | 2026-09-04 14:38:32 | 54.80310 | 19.96448 | 151° | 93km/h | 1579m | 8.3m/s | -50.9°C | 71.1% | 38.8hPa | 2.4V | 00:00:00 | 00:00:00 | 00:00:00 | |
| AA1-15 | 2026-09-04 14:38:30 | 54.80349 | 19.96402 | 143° | 99km/h | 1565m | 9.7m/s | -50.7°C | 71% | 38.9hPa | 2.4V | 00:00:00 | 00:00:00 | 00:00:00 | |
| AA1-15 | 2026-09-04 14:38:29 | 54.80361 | 19.96375 | 133° | 93km/h | 1561m | 10.7m/s | -50.7°C | 71.1% | 38.9hPa | 2.4V | 00:00:00 | 00:00:00 | 00:00:00 | |
| AA1-15 | 2026-09-04 14:38:27 | 54.80394 | 19.96306 | 130° | 102km/h | 1550m | 15.5m/s | -50.7°C | 71.1% | 38.9hPa | 2.4V | 00:00:00 | 00:00:00 | 00:00:00 | |
| AA1-15 | 2026-09-04 14:38:25 | 54.80398 | 19.96250 | 109° | 97km/h | 1521m | 8.6m/s | -50.6°C | 72.3% | 39hPa | 2.4V | 00:00:00 | 00:00:00 | 00:00:00 | |
| AA1-15 | 2026-09-04 14:38:23 | 54.80390 | 19.96183 | 98° | 93km/h | 1509m | 7.9m/s | -50.6°C | 72.3% | 39.1hPa | 2.4V | 00:00:00 | 00:00:00 | 00:00:00 | |
| AA1-15 | 2026-09-04 14:38:20 | 54.80390 | 19.96070 | 78° | 95km/h | 1493m | 8.6m/s | -50.7°C | 72.9% | 39.1hPa | 2.4V | 00:00:00 | 00:00:00 | 00:00:00 | |
| AA1-15 | 2026-09-04 14:38:18 | 54.80377 | 19.95986 | 70° | 95km/h | 1465m | 8.4m/s | -50.7°C | 72.9% | 39.1hPa | 2.4V | 00:00:00 | 00:00:00 | 00:00:00 | |
| AA1-15 | 2026-09-04 14:38:17 | 54.80365 | 19.95950 | 58° | 93km/h | 1457m | 8m/s | -50.8°C | 73% | 39.2hPa | 2.4V | 00:00:00 | 00:00:00 | 00:00:00 | |
| AA1-15 | 2026-09-04 14:38:15 | 54.80325 | 19.95883 | 46° | 99km/h | 1436m | 7.9m/s | -50.8°C | 73.5% | 39.3hPa | 2.4V | 00:00:00 | 00:00:00 | 00:00:00 | |
| AA1-15 | 2026-09-04 14:38:14 | 54.80306 | 19.95851 | 42° | 97km/h | 1430m | 8.2m/s | -50.8°C | 73.6% | 39.3hPa | 2.4V | 00:00:00 | 00:00:00 | 00:00:00 | |
| AA1-15 | 2026-09-04 14:38:10 | 54.80211 | 19.95767 | 18° | 95km/h | 1392m | 8.9m/s | -50.8°C | 73.9% | 39.4hPa | 2.4V | 00:00:00 | 00:00:00 | 00:00:00 | |
| AA1-15 | 2026-09-04 14:38:09 | 54.80184 | 19.95756 | 11° | 97km/h | 1388m | 8.9m/s | -50.8°C | 74% | 39.4hPa | 2.4V | 00:00:00 | 00:00:00 | 00:00:00 | |
| AA1-15 | 2026-09-04 14:38:02 | 54.79967 | 19.95735 | 360° | 95km/h | 1371m | 8.3m/s | -50.9°C | 73.8% | 39.6hPa | 2.4V | 00:00:00 | 00:00:00 | 00:00:00 | |
| AA1-15 | 2026-09-04 14:38:01 | 54.79939 | 19.95735 | 0° | 100km/h | 1360m | 8.2m/s | -50.9°C | 73.8% | 39.6hPa | 2.4V | 00:00:00 | 00:00:00 | 00:00:00 | |
| AA1-15 | 2026-09-04 14:37:58 | 54.79867 | 19.95737 | 0° | 93km/h | 1340m | 8.1m/s | -51°C | 73.6% | 39.7hPa | 2.4V | 00:00:00 | 00:00:00 | 00:00:00 | |
| AA1-15 | 2026-09-04 14:37:56 | 54.79818 | 19.95737 | 0° | 93km/h | 1318m | 8.1m/s | -51.1°C | 73.7% | 39.7hPa | 2.4V | 00:00:00 | 00:00:00 | 00:00:00 | |
| AA1-15 | 2026-09-04 14:37:54 | 54.79768 | 19.95738 | 0° | 100km/h | 1298m | 8.2m/s | -51.2°C | 73.5% | 39.8hPa | 2.4V | 00:00:00 | 00:00:00 | 00:00:00 | |
| AA1-15 | 2026-09-04 14:37:52 | 54.79721 | 19.95738 | 0° | 100km/h | 1270m | 8.1m/s | -51.1°C | 73.6% | 39.9hPa | 2.4V | 00:00:00 | 00:00:00 | 00:00:00 | |
| AA1-15 | 2026-09-04 14:37:51 | 54.79697 | 19.95738 | 360° | 95km/h | 1258m | 8.1m/s | -51.2°C | 73.4% | 39.9hPa | 2.4V | 00:00:00 | 00:00:00 | 00:00:00 | |
| AA1-15 | 2026-09-04 14:37:47 | 54.79589 | 19.95724 | 24° | 95km/h | 1206m | 8.7m/s | -51.2°C | 73.3% | 40hPa | 2.4V | 00:00:00 | 00:00:00 | 00:00:00 | |
| AA1-15 | 2026-09-04 14:37:44 | 54.79536 | 19.95625 | 80° | 99km/h | 1183m | 8.1m/s | -51.2°C | 73.1% | 40.1hPa | 2.4V | 00:00:00 | 00:00:00 | 00:00:00 | |
| AA1-15 | 2026-09-04 14:37:42 | 54.79535 | 19.95542 | 116° | 99km/h | 1167m | 8.5m/s | -51.2°C | 72.9% | 40.1hPa | 2.4V | 00:00:00 | 00:00:00 | 00:00:00 | |
| AA1-15 | 2026-09-04 14:37:40 | 54.79559 | 19.95481 | 153° | 99km/h | 1152m | 8.2m/s | -51.2°C | 72.7% | 40.2hPa | 2.4V | 00:00:00 | 00:00:00 | 00:00:00 | |
| AA1-15 | 2026-09-04 14:37:39 | 54.79579 | 19.95468 | 171° | 95km/h | 1144m | 8.3m/s | -51.2°C | 72.7% | 40.2hPa | 2.4V | 00:00:00 | 00:00:00 | 00:00:00 | |
| AA1-15 | 2026-09-04 14:37:36 | 54.79633 | 19.95501 | 224° | 95km/h | 1119m | 8.1m/s | -51.2°C | 72.2% | 40.3hPa | 2.4V | 00:00:00 | 00:00:00 | 00:00:00 | |
| AA1-15 | 2026-09-04 14:37:35 | 54.79646 | 19.95533 | 243° | 97km/h | 1110m | 8.4m/s | -51.2°C | 71.9% | 40.3hPa | 2.4V | 00:00:00 | 00:00:00 | 00:00:00 | |
| AA1-15 | 2026-09-04 14:37:34 | 54.79652 | 19.95571 | 264° | 95km/h | 1102m | 8.5m/s | -51.2°C | 71.8% | 40.3hPa | 2.4V | 00:00:00 | 00:00:00 | 00:00:00 | |
| AA1-15 | 2026-09-04 14:37:32 | 54.79655 | 19.95653 | 270° | 95km/h | 1087m | 8.1m/s | -51.1°C | 71.3% | 40.4hPa | 2.4V | 00:00:00 | 00:00:00 | 00:00:00 | |
| AA1-15 | 2026-09-04 14:37:31 | 54.79656 | 19.95696 | 270° | 95km/h | 1080m | 8m/s | -51.1°C | 71% | 40.4hPa | 2.4V | 00:00:00 | 00:00:00 | 00:00:00 | |
| AA1-15 | 2026-09-04 14:37:28 | 54.79663 | 19.95825 | 270° | 95km/h | 1065m | 8m/s | -51.1°C | 70.2% | 40.5hPa | 2.4V | 00:00:00 | 00:00:00 | 00:00:00 | |
| AA1-15 | 2026-09-04 14:37:26 | 54.79675 | 19.95918 | 270° | 95km/h | 1059m | 8.1m/s | -51°C | 69.6% | 40.6hPa | 2.4V | 00:00:00 | 00:00:00 | 00:00:00 | |
| AA1-15 | 2026-09-04 14:37:03 | 54.88346 | 20.04060 | 10° | 26km/h | 159087m | 9m/s | -51.1°C | 70.9% | 41.2hPa | 2.4V | 00:00:00 | 00:00:00 | 00:00:00 |